A. J. Meerwald — WCW79O6 — position and weather

sailwx.info

Track history (hours):
 
Tides and Currents Weather Stations Pressure Air Temp Water Temp Dewpoint Dewpoint Depression Visibility Wind Speed Wind Dir Waves Ship Positions

A. J. Meerwald

Last reported at 2016-Nov-01 03:10 UTC. Time now 2017-Mar-25 03:57 UTC.
Position N 39°14' W 075°02'.
Warning: this ship's position is months out of date.

Length 108 m; draft 4 m.

Type: Sailing vessel. MMSI: 367115280.

Date/timePositionNaut miles runAvg speedWind from/ knotsBaromVisibWave heightAir tempDewpointWater temp
2016-Nov-01 03:10N 39°14' W 075°02'5 5.7
2016-Nov-01 02:14N 39°10' W 075°07'12 6.9
2016-Nov-01 00:33N 39°16' W 075°20'8 8.0
2016-Oct-31 23:33N 39°22' W 075°27'8 8.3
2016-Oct-31 22:33N 39°28' W 075°34'10 5.1
2016-Oct-31 20:33N 39°32' W 075°45'6 5.8
2016-Oct-31 19:33N 39°31' W 075°53'35 5.7
2016-Oct-31 13:23N 39°01' W 076°15'  
2016-Oct-27 11:33N 39°32' W 075°44'9 4.3
2016-Oct-27 09:33N 39°29' W 075°34'30 5.9
2016-Oct-27 04:33N 39°12' W 075°02'  
Track history (hours):
 
Tides and Currents Weather Stations Pressure Air Temp Water Temp Dewpoint Dewpoint Depression Visibility Wind Speed Wind Dir Waves Ship Positions

A. J. Meerwald

Last reported at 2016-Nov-01 03:10 UTC. Time now 2017-Mar-25 03:57 UTC.
Position N 39°14' W 075°02'.
Warning: this ship's position is months out of date.

Length 108 m; draft 4 m.

Type: Sailing vessel. MMSI: 367115280.

Date/timePositionNaut miles runAvg speedWind from/ knotsBaromVisibWave heightAir tempDewpointWater temp
2016-Nov-01 03:10N 39°14' W 075°02'5 5.7
2016-Nov-01 02:14N 39°10' W 075°07'12 6.9
2016-Nov-01 00:33N 39°16' W 075°20'8 8.0
2016-Oct-31 23:33N 39°22' W 075°27'8 8.3
2016-Oct-31 22:33N 39°28' W 075°34'10 5.1
2016-Oct-31 20:33N 39°32' W 075°45'6 5.8
2016-Oct-31 19:33N 39°31' W 075°53'35 5.7
2016-Oct-31 13:23N 39°01' W 076°15'  
2016-Oct-27 11:33N 39°32' W 075°44'9 4.3
2016-Oct-27 09:33N 39°29' W 075°34'30 5.9
2016-Oct-27 04:33N 39°12' W 075°02'  

Dump ship's entire track history